createdAt,value
2023-12-05T00:00:03.862Z,55.70
2023-12-05T00:02:30.282Z,45.60
2023-12-05T00:04:56.805Z,59.27
2023-12-05T00:07:24.888Z,57.37
2023-12-05T00:09:51.498Z,57.70
2023-12-05T00:12:18.028Z,41.30
2023-12-05T00:14:45.342Z,47.30
2023-12-05T00:17:11.784Z,51.53
2023-12-05T00:19:38.346Z,44.57
2023-12-05T00:22:05.090Z,39.63
2023-12-05T00:24:31.648Z,43.93
2023-12-05T00:26:58.127Z,37.20
2023-12-05T00:29:24.656Z,34.90
2023-12-05T00:31:51.063Z,43.30
2023-12-05T00:34:17.551Z,34.00
2023-12-05T00:36:44.108Z,32.20
2023-12-05T00:39:10.549Z,37.67
2023-12-05T00:41:36.974Z,36.27
2023-12-05T00:44:03.404Z,34.73
2023-12-05T00:46:29.840Z,32.07
2023-12-05T00:48:56.367Z,35.73
2023-12-05T00:51:22.908Z,42.77
2023-12-05T00:53:49.556Z,36.90
2023-12-05T00:56:16.097Z,37.90
2023-12-05T00:58:42.995Z,38.40
2023-12-05T01:01:09.537Z,41.97
2023-12-05T01:03:36.429Z,38.70
2023-12-05T01:06:03.111Z,35.27
2023-12-05T01:08:29.526Z,40.40
2023-12-05T01:10:56.303Z,37.47
2023-12-05T01:13:22.863Z,39.83
2023-12-05T01:15:49.418Z,35.80
2023-12-05T01:18:16.104Z,40.80
2023-12-05T01:20:42.799Z,41.53
2023-12-05T01:23:09.290Z,39.40
2023-12-05T01:25:36.075Z,34.50
2023-12-05T01:28:03.742Z,43.67
2023-12-05T01:30:30.219Z,38.87
2023-12-05T01:32:56.782Z,40.27
2023-12-05T01:35:23.240Z,35.30
2023-12-05T01:37:49.656Z,35.67
2023-12-05T01:40:16.165Z,36.40
2023-12-05T01:42:42.841Z,37.53
2023-12-05T01:45:09.895Z,34.53
2023-12-05T01:47:37.353Z,38.03
2023-12-05T01:50:05.663Z,35.80
2023-12-05T01:52:32.610Z,40.57
2023-12-05T01:54:59.051Z,33.50
2023-12-05T01:57:26.651Z,35.47
2023-12-05T01:59:54.005Z,37.10
2023-12-05T02:02:20.530Z,45.57
2023-12-05T02:04:47.278Z,41.17
2023-12-05T02:07:14.966Z,40.87
2023-12-05T02:09:41.484Z,36.53
2023-12-05T02:12:08.478Z,46.50
2023-12-05T02:14:34.957Z,36.57
2023-12-05T02:17:20.045Z,35.33
2023-12-05T02:19:51.116Z,33.40
2023-12-05T02:22:55.520Z,32.00
2023-12-05T02:25:24.945Z,37.27
2023-12-05T02:27:52.380Z,45.07
2023-12-05T02:30:18.981Z,43.73
2023-12-05T02:32:45.663Z,35.67
2023-12-05T02:35:13.996Z,36.60
2023-12-05T02:38:06.368Z,41.50
2023-12-05T02:40:41.902Z,38.10
2023-12-05T02:43:19.474Z,40.70
2023-12-05T02:45:47.771Z,41.73
2023-12-05T02:48:14.777Z,48.37
2023-12-05T02:50:41.386Z,54.87
2023-12-05T02:53:07.827Z,53.60
2023-12-05T02:55:34.507Z,51.93
2023-12-05T02:58:00.939Z,51.40
2023-12-05T03:00:27.451Z,56.17
2023-12-05T03:02:53.923Z,51.43
2023-12-05T03:05:20.384Z,51.50
2023-12-05T03:07:46.898Z,49.00
2023-12-05T03:10:13.413Z,41.33
2023-12-05T03:12:39.892Z,43.93
2023-12-05T03:15:07.214Z,45.63
2023-12-05T03:17:33.866Z,45.37
2023-12-05T03:20:00.492Z,45.13
2023-12-05T03:22:27.529Z,54.40
2023-12-05T03:24:55.687Z,49.80
2023-12-05T03:27:22.206Z,47.60
2023-12-05T03:29:48.633Z,45.77
2023-12-05T03:32:15.085Z,44.73
2023-12-05T03:34:41.575Z,49.30
2023-12-05T03:37:08.058Z,43.20
2023-12-05T03:39:34.552Z,40.50
2023-12-05T03:42:01.037Z,49.73
2023-12-05T03:44:27.484Z,48.77
2023-12-05T03:46:53.974Z,46.80
2023-12-05T03:49:20.495Z,46.00
2023-12-05T03:51:47.046Z,42.57
2023-12-05T03:54:13.740Z,43.07
2023-12-05T03:56:40.276Z,41.77
2023-12-05T03:59:06.754Z,44.20
2023-12-05T04:01:33.243Z,34.20
2023-12-05T04:03:59.844Z,33.27
2023-12-05T04:06:26.518Z,23.93
2023-12-05T04:08:53.026Z,28.33
2023-12-05T04:11:29.495Z,21.37
2023-12-05T04:13:56.243Z,20.80
2023-12-05T04:16:22.638Z,21.13
2023-12-05T04:18:49.195Z,21.67
2023-12-05T04:21:16.959Z,24.43
2023-12-05T04:23:43.417Z,22.10
2023-12-05T04:26:09.861Z,21.47
2023-12-05T04:28:36.353Z,23.10
2023-12-05T04:31:02.993Z,20.50
2023-12-05T04:33:29.476Z,23.30
2023-12-05T04:35:56.468Z,23.10
2023-12-05T04:38:22.856Z,14.53
2023-12-05T04:40:49.278Z,20.93
2023-12-05T04:43:15.855Z,19.70
2023-12-05T04:45:43.334Z,20.03
2023-12-05T04:48:10.215Z,19.13
2023-12-05T04:50:36.682Z,14.00
2023-12-05T04:53:03.355Z,14.63
2023-12-05T04:55:29.797Z,15.17
2023-12-05T04:57:56.329Z,18.47
2023-12-05T05:00:22.803Z,15.17
2023-12-05T05:02:49.298Z,24.40
2023-12-05T05:05:15.930Z,20.70
2023-12-05T05:07:42.471Z,18.57
2023-12-05T05:10:09.476Z,17.57
2023-12-05T05:12:36.073Z,19.83
2023-12-05T05:15:02.553Z,19.10
2023-12-05T05:17:29.015Z,21.80
2023-12-05T05:19:55.543Z,22.03
2023-12-05T05:22:21.999Z,17.83
2023-12-05T05:24:48.544Z,19.50
2023-12-05T05:27:15.200Z,19.83
2023-12-05T05:29:41.739Z,15.13
2023-12-05T05:32:08.258Z,14.43
2023-12-05T05:34:34.819Z,16.87
2023-12-05T05:37:01.409Z,14.00
2023-12-05T05:39:27.966Z,15.43
2023-12-05T05:41:54.450Z,17.23
2023-12-05T05:44:21.006Z,17.20
2023-12-05T05:46:47.612Z,17.27
2023-12-05T05:49:14.501Z,12.87
2023-12-05T05:51:41.067Z,16.60
2023-12-05T05:54:07.588Z,25.87
2023-12-05T05:56:40.596Z,16.57
2023-12-05T05:59:07.566Z,20.53
2023-12-05T06:01:34.040Z,14.60
2023-12-05T06:04:00.620Z,13.47
2023-12-05T06:06:27.295Z,12.37
2023-12-05T06:08:53.958Z,21.93
2023-12-05T06:11:21.347Z,18.40
2023-12-05T06:13:47.787Z,17.23
2023-12-05T06:16:14.244Z,15.37
2023-12-05T06:18:40.873Z,14.07
2023-12-05T06:21:07.635Z,15.43
2023-12-05T06:23:34.117Z,15.70
2023-12-05T06:26:00.562Z,12.87
2023-12-05T06:28:26.976Z,21.33
2023-12-05T06:30:53.521Z,14.60
2023-12-05T06:33:20.120Z,14.93
2023-12-05T06:35:46.657Z,14.90
2023-12-05T06:38:14.629Z,18.37
2023-12-05T06:40:41.525Z,12.73
2023-12-05T06:43:08.754Z,14.67
2023-12-05T06:45:35.821Z,14.43
2023-12-05T06:48:03.848Z,14.60
2023-12-05T06:50:31.813Z,15.63
2023-12-05T06:52:58.548Z,18.33
2023-12-05T06:55:25.385Z,21.07
2023-12-05T06:57:51.824Z,19.37
2023-12-05T07:00:19.678Z,20.60
2023-12-05T07:02:46.114Z,28.53
2023-12-05T07:05:12.782Z,16.97
2023-12-05T07:07:39.352Z,18.00
2023-12-05T07:10:07.064Z,19.47
2023-12-05T07:12:34.974Z,17.50
2023-12-05T07:15:01.646Z,18.10
2023-12-05T07:17:28.172Z,15.03
2023-12-05T07:19:54.764Z,16.00
2023-12-05T07:22:21.214Z,10.40
2023-12-05T07:24:47.676Z,11.73
2023-12-05T07:27:14.382Z,13.20
2023-12-05T07:29:40.879Z,14.33
2023-12-05T07:32:07.372Z,17.23
2023-12-05T07:34:33.874Z,17.07
2023-12-05T07:37:00.632Z,24.10
2023-12-05T07:39:27.827Z,18.67
2023-12-05T07:41:54.280Z,20.10
2023-12-05T07:44:21.500Z,28.37
2023-12-05T07:46:47.913Z,15.20
2023-12-05T07:49:14.469Z,15.40
2023-12-05T07:51:40.940Z,25.07
2023-12-05T07:54:12.367Z,14.43
2023-12-05T07:56:38.817Z,13.90
2023-12-05T07:59:05.317Z,15.43
2023-12-05T08:01:31.825Z,9.17
2023-12-05T08:03:59.006Z,10.00
2023-12-05T08:06:25.633Z,9.83
2023-12-05T08:08:52.326Z,7.23
2023-12-05T08:11:20.279Z,8.50
2023-12-05T08:13:48.671Z,8.73
2023-12-05T08:16:15.071Z,8.23
2023-12-05T08:18:41.664Z,9.10
2023-12-05T08:21:08.546Z,14.80
2023-12-05T08:23:35.030Z,9.80
2023-12-05T08:26:01.522Z,6.60
2023-12-05T08:28:29.717Z,5.93
2023-12-05T08:30:56.437Z,7.10
2023-12-05T08:33:23.492Z,6.50
2023-12-05T08:35:49.968Z,8.80
2023-12-05T08:38:16.361Z,8.40
2023-12-05T08:40:42.926Z,8.07
2023-12-05T08:43:09.347Z,7.03
2023-12-05T08:45:35.751Z,7.70
2023-12-05T08:48:02.291Z,10.40
2023-12-05T08:50:28.717Z,9.03
2023-12-05T08:52:55.724Z,9.17
2023-12-05T08:55:22.577Z,12.77
2023-12-05T08:57:49.092Z,9.53
2023-12-05T09:00:16.254Z,11.63
2023-12-05T09:02:42.669Z,7.07
2023-12-05T09:05:09.308Z,12.13
2023-12-05T09:07:36.076Z,9.97
2023-12-05T09:10:02.700Z,8.50
2023-12-05T09:12:29.165Z,5.20
2023-12-05T09:14:55.844Z,5.27
2023-12-05T09:17:22.388Z,9.70
2023-12-05T09:19:50.330Z,8.10
2023-12-05T09:22:16.962Z,5.67
2023-12-05T09:24:43.424Z,12.40
2023-12-05T09:27:09.913Z,7.00
2023-12-05T09:29:49.307Z,7.70
2023-12-05T09:32:18.034Z,17.53
2023-12-05T09:34:45.443Z,18.17
2023-12-05T09:37:11.961Z,10.30
2023-12-05T09:39:38.392Z,12.37
2023-12-05T09:42:07.852Z,7.60
2023-12-05T09:44:35.149Z,9.70
2023-12-05T09:47:07.209Z,10.70
2023-12-05T09:49:34.097Z,6.17
2023-12-05T09:52:01.151Z,7.83
2023-12-05T09:54:28.076Z,9.30
2023-12-05T09:56:59.136Z,11.33
2023-12-05T09:59:25.671Z,14.87
2023-12-05T10:01:56.592Z,11.20
2023-12-05T10:04:23.506Z,9.03
2023-12-05T10:06:51.377Z,9.10
2023-12-05T10:09:18.658Z,16.63
2023-12-05T10:11:45.919Z,7.03
2023-12-05T10:14:12.719Z,10.33
2023-12-05T10:16:39.677Z,9.37
2023-12-05T10:19:09.644Z,7.30
2023-12-05T10:21:37.166Z,7.27
2023-12-05T10:24:04.336Z,23.03
2023-12-05T10:26:31.216Z,8.93
2023-12-05T10:28:57.896Z,10.03
2023-12-05T10:31:27.302Z,19.23
2023-12-05T10:34:05.255Z,7.50
2023-12-05T10:36:31.774Z,9.00
2023-12-05T10:38:58.158Z,15.53
2023-12-05T10:41:25.819Z,7.00
2023-12-05T10:43:57.249Z,10.93
2023-12-05T10:46:27.539Z,8.30
2023-12-05T10:48:55.259Z,4.83
2023-12-05T10:51:25.598Z,6.13
2023-12-05T10:53:53.821Z,6.10
2023-12-05T10:56:20.735Z,7.03
2023-12-05T10:58:48.760Z,4.77
2023-12-05T11:01:15.690Z,4.37
2023-12-05T11:03:42.852Z,4.90
2023-12-05T11:06:10.084Z,6.63
2023-12-05T11:08:37.872Z,7.90
2023-12-05T11:11:05.612Z,9.80
2023-12-05T11:13:36.194Z,5.60
2023-12-05T11:16:11.360Z,4.30
2023-12-05T11:18:44.734Z,4.80
2023-12-05T11:21:52.713Z,7.90
2023-12-05T11:24:51.741Z,4.83
2023-12-05T11:27:53.421Z,5.33
2023-12-05T11:30:27.043Z,4.90
2023-12-05T11:33:15.955Z,6.23
2023-12-05T11:35:59.093Z,4.40
2023-12-05T11:38:26.303Z,4.90
2023-12-05T11:41:15.298Z,4.83
2023-12-05T11:43:44.943Z,5.40
2023-12-05T11:46:11.546Z,8.70
2023-12-05T11:48:38.227Z,6.13
2023-12-05T11:51:04.826Z,5.03
2023-12-05T11:53:31.541Z,8.30
2023-12-05T11:55:58.414Z,11.20
2023-12-05T11:58:35.655Z,5.30
2023-12-05T12:01:04.481Z,6.13
2023-12-05T12:03:51.107Z,4.87
2023-12-05T12:06:22.221Z,6.30
2023-12-05T12:08:51.442Z,3.00
2023-12-05T12:11:18.858Z,11.17
2023-12-05T12:13:45.310Z,5.40
2023-12-05T12:16:20.004Z,4.47
2023-12-05T12:18:53.446Z,5.10
2023-12-05T12:21:28.247Z,3.77
2023-12-05T12:23:59.286Z,6.33
2023-12-05T12:26:26.762Z,5.87
2023-12-05T12:28:53.250Z,7.07
2023-12-05T12:31:28.849Z,7.40
2023-12-05T12:33:57.596Z,8.20
2023-12-05T12:36:25.041Z,6.63
2023-12-05T12:38:51.618Z,7.53
2023-12-05T12:41:18.476Z,5.63
2023-12-05T12:43:45.108Z,5.17
2023-12-05T12:46:11.563Z,8.00
2023-12-05T12:48:38.260Z,5.13
2023-12-05T12:51:07.076Z,7.37
2023-12-05T12:53:33.527Z,14.10
2023-12-05T12:56:00.383Z,9.63
2023-12-05T12:58:36.584Z,8.00
2023-12-05T13:01:05.017Z,5.77
2023-12-05T13:03:33.546Z,9.70
2023-12-05T13:06:01.809Z,5.80
2023-12-05T13:08:28.477Z,5.73
2023-12-05T13:10:56.410Z,7.20
2023-12-05T13:13:22.918Z,7.00
2023-12-05T13:15:49.928Z,6.40
2023-12-05T13:18:17.117Z,5.40
2023-12-05T13:20:53.211Z,4.67
2023-12-05T13:23:21.041Z,5.87
2023-12-05T13:25:47.680Z,5.50
2023-12-05T13:28:14.673Z,8.70
2023-12-05T13:30:42.714Z,8.53
2023-12-05T13:33:12.956Z,5.47
2023-12-05T13:35:40.521Z,5.23
2023-12-05T13:38:08.650Z,7.23
2023-12-05T13:40:35.193Z,13.70
2023-12-05T13:43:01.745Z,6.13
2023-12-05T13:45:28.364Z,11.50
2023-12-05T13:47:54.875Z,6.40
2023-12-05T13:50:21.327Z,5.27
2023-12-05T13:52:47.772Z,5.50
2023-12-05T13:55:14.241Z,11.27
2023-12-05T13:57:40.826Z,4.53
2023-12-05T14:00:09.305Z,3.40
2023-12-05T14:02:35.796Z,9.23
2023-12-05T14:05:02.548Z,3.33
2023-12-05T14:07:29.125Z,5.60
2023-12-05T14:09:55.775Z,4.10
2023-12-05T14:12:22.356Z,6.00
2023-12-05T14:14:48.822Z,8.70
2023-12-05T14:17:15.602Z,10.73
2023-12-05T14:19:42.421Z,9.47
2023-12-05T14:22:08.964Z,3.43
2023-12-05T14:24:35.553Z,10.73
2023-12-05T14:27:02.805Z,3.67
2023-12-05T14:29:29.291Z,5.93
2023-12-05T14:31:55.821Z,5.70
2023-12-05T14:34:22.510Z,9.60
2023-12-05T14:36:49.694Z,5.60
2023-12-05T14:39:18.354Z,7.73
2023-12-05T14:41:49.652Z,5.37
2023-12-05T14:44:16.294Z,2.10
2023-12-05T14:46:42.883Z,8.10
2023-12-05T14:49:09.586Z,4.40
2023-12-05T14:51:36.682Z,7.23
2023-12-05T14:54:03.273Z,8.40
2023-12-05T14:56:29.709Z,8.30
2023-12-05T14:58:56.149Z,6.43
2023-12-05T15:01:22.771Z,8.40
2023-12-05T15:03:51.084Z,2.37
2023-12-05T15:06:17.850Z,5.83
2023-12-05T15:08:44.291Z,11.97
2023-12-05T15:11:10.739Z,12.43
2023-12-05T15:13:37.189Z,9.67
2023-12-05T15:16:03.973Z,3.00
2023-12-05T15:18:30.565Z,6.47
2023-12-05T15:20:57.463Z,6.73
2023-12-05T15:23:24.140Z,4.70
2023-12-05T15:25:51.097Z,7.77
2023-12-05T15:28:17.935Z,10.67
2023-12-05T15:30:44.514Z,7.60
2023-12-05T15:33:11.143Z,9.60
2023-12-05T15:35:37.650Z,9.80
2023-12-05T15:39:24.454Z,9.13
2023-12-05T15:43:11.142Z,5.83
2023-12-05T15:45:38.643Z,9.23
2023-12-05T15:48:06.878Z,5.97
2023-12-05T15:50:33.497Z,8.53
2023-12-05T15:53:02.328Z,8.00
2023-12-05T15:55:28.818Z,7.67
2023-12-05T15:57:55.290Z,10.13
2023-12-05T16:00:21.889Z,5.83
2023-12-05T16:02:48.335Z,10.83
2023-12-05T16:05:14.874Z,5.20
2023-12-05T16:07:41.596Z,7.33
2023-12-05T16:10:08.939Z,8.60
2023-12-05T16:12:35.564Z,10.50
2023-12-05T16:15:03.530Z,6.13
2023-12-05T16:17:30.552Z,8.20
2023-12-05T16:19:57.418Z,5.97
2023-12-05T16:22:23.943Z,11.80
2023-12-05T16:24:50.414Z,10.83
2023-12-05T16:27:17.165Z,12.93
2023-12-05T16:29:44.772Z,7.00
2023-12-05T16:32:11.557Z,7.17
2023-12-05T16:34:38.553Z,3.83
2023-12-05T16:37:05.089Z,6.83
2023-12-05T16:39:32.490Z,6.00
2023-12-05T16:41:58.950Z,5.47
2023-12-05T16:44:25.356Z,5.10
2023-12-05T16:46:51.745Z,5.30
2023-12-05T16:49:18.344Z,4.50
2023-12-05T16:51:45.045Z,5.73
2023-12-05T16:54:11.555Z,6.20
2023-12-05T16:56:37.973Z,8.70
2023-12-05T16:59:04.437Z,7.20
2023-12-05T17:01:31.027Z,5.13
2023-12-05T17:03:57.647Z,5.23
2023-12-05T17:06:24.292Z,6.60
2023-12-05T17:08:50.807Z,8.17
2023-12-05T17:11:17.275Z,7.63
2023-12-05T17:13:43.742Z,8.20
2023-12-05T17:16:10.346Z,4.90
2023-12-05T17:18:37.265Z,7.10
2023-12-05T17:21:04.195Z,5.27
2023-12-05T17:23:32.016Z,10.33
2023-12-05T17:25:58.688Z,5.60
2023-12-05T17:28:25.322Z,5.80
2023-12-05T17:30:51.767Z,9.80
2023-12-05T17:33:18.825Z,12.27
2023-12-05T17:35:45.447Z,6.93
2023-12-05T17:38:13.220Z,5.80
2023-12-05T17:40:39.628Z,9.00
2023-12-05T17:43:06.166Z,7.23
2023-12-05T17:45:32.692Z,7.60
2023-12-05T17:47:59.946Z,8.03
2023-12-05T17:50:26.469Z,6.93
2023-12-05T17:52:53.621Z,8.10
2023-12-05T17:55:20.040Z,8.10
2023-12-05T17:57:46.474Z,7.70
2023-12-05T18:00:13.932Z,7.60
2023-12-05T18:02:40.669Z,10.27
2023-12-05T18:05:07.874Z,11.00
2023-12-05T18:07:53.567Z,5.30
2023-12-05T18:10:20.780Z,7.70
2023-12-05T18:12:47.532Z,13.50
2023-12-05T18:15:14.322Z,21.00
2023-12-05T18:17:41.713Z,5.93
2023-12-05T18:20:09.847Z,8.93
2023-12-05T18:22:36.438Z,10.70
2023-12-05T18:25:07.536Z,6.83
2023-12-05T18:27:34.435Z,9.47
2023-12-05T18:30:01.333Z,11.33
2023-12-05T18:32:28.557Z,13.13
2023-12-05T18:34:55.437Z,6.47
2023-12-05T18:37:22.341Z,7.60
2023-12-05T18:39:49.036Z,9.60
2023-12-05T18:42:15.479Z,14.60
2023-12-05T18:44:42.096Z,12.73
2023-12-05T18:47:08.478Z,12.70
2023-12-05T18:49:35.122Z,6.07
2023-12-05T18:52:02.102Z,11.83
2023-12-05T18:54:28.619Z,5.90
2023-12-05T18:56:55.038Z,6.93
2023-12-05T18:59:21.517Z,19.83
2023-12-05T19:01:48.683Z,9.07
2023-12-05T19:04:15.421Z,12.60
2023-12-05T19:06:41.942Z,6.50
2023-12-05T19:09:08.464Z,7.50
2023-12-05T19:11:35.501Z,7.03
2023-12-05T19:14:03.480Z,10.30
2023-12-05T19:16:29.919Z,4.20
2023-12-05T19:18:56.719Z,8.37
2023-12-05T19:21:23.269Z,8.70
2023-12-05T19:23:49.645Z,8.63
2023-12-05T19:26:27.021Z,4.67
2023-12-05T19:28:57.640Z,5.77
2023-12-05T19:31:24.612Z,8.03
2023-12-05T19:33:51.548Z,5.40
2023-12-05T19:36:18.103Z,7.00
2023-12-05T19:38:44.591Z,5.37
2023-12-05T19:41:10.972Z,8.73
2023-12-05T19:43:37.397Z,5.00
2023-12-05T19:46:04.008Z,7.33
2023-12-05T19:48:31.066Z,9.10
2023-12-05T19:50:57.505Z,7.10
2023-12-05T19:53:23.963Z,6.10
2023-12-05T19:55:54.436Z,7.37
2023-12-05T19:58:20.840Z,13.83
2023-12-05T20:00:47.270Z,7.10
2023-12-05T20:03:13.766Z,7.63
2023-12-05T20:05:40.553Z,6.93
2023-12-05T20:08:08.362Z,8.77
2023-12-05T20:10:35.476Z,8.70
2023-12-05T20:13:01.895Z,8.27
2023-12-05T20:15:30.596Z,8.27
2023-12-05T20:17:57.834Z,7.73
2023-12-05T20:20:24.292Z,9.20
2023-12-05T20:22:50.680Z,7.70
2023-12-05T20:25:17.511Z,6.73
2023-12-05T20:27:46.113Z,4.53
2023-12-05T20:30:12.603Z,4.37
2023-12-05T20:32:39.003Z,5.57
2023-12-05T20:35:06.076Z,6.27
2023-12-05T20:37:32.480Z,7.13
2023-12-05T20:39:59.639Z,5.50
2023-12-05T20:42:28.162Z,6.50
2023-12-05T20:44:55.091Z,6.70
2023-12-05T20:47:21.651Z,4.90
2023-12-05T20:49:48.403Z,6.00
2023-12-05T20:52:15.042Z,11.10
2023-12-05T20:54:41.479Z,6.23
2023-12-05T20:57:08.250Z,5.63
2023-12-05T20:59:36.805Z,8.30
2023-12-05T21:02:04.758Z,10.30
2023-12-05T21:04:31.289Z,7.07
2023-12-05T21:06:57.949Z,6.57
2023-12-05T21:09:24.625Z,7.03
2023-12-05T21:11:51.158Z,7.33
2023-12-05T21:14:17.659Z,8.00
2023-12-05T21:16:44.299Z,7.63
2023-12-05T21:19:11.150Z,8.13
2023-12-05T21:21:37.774Z,9.30
2023-12-05T21:24:04.517Z,7.93
2023-12-05T21:26:30.920Z,6.60
2023-12-05T21:28:57.305Z,6.47
2023-12-05T21:31:23.685Z,7.17
2023-12-05T21:33:51.074Z,7.87
2023-12-05T21:36:24.945Z,7.03
2023-12-05T21:38:55.652Z,12.60
2023-12-05T21:41:23.857Z,7.93
2023-12-05T21:43:51.848Z,5.40
2023-12-05T21:46:29.804Z,9.10
2023-12-05T21:48:57.347Z,9.00
2023-12-05T21:51:24.032Z,10.47
2023-12-05T21:53:50.619Z,8.23
2023-12-05T21:56:17.417Z,8.63
2023-12-05T21:58:44.074Z,9.90
2023-12-05T22:01:15.483Z,8.87
2023-12-05T22:03:43.460Z,7.23
2023-12-05T22:06:11.133Z,7.80
2023-12-05T22:08:37.746Z,5.90
2023-12-05T22:11:05.996Z,7.47
2023-12-05T22:13:33.263Z,9.53
2023-12-05T22:16:01.002Z,15.23
2023-12-05T22:18:27.826Z,11.53
2023-12-05T22:20:55.153Z,9.50
2023-12-05T22:23:21.656Z,6.27
2023-12-05T22:25:49.460Z,9.37
2023-12-05T22:28:16.051Z,8.63
2023-12-05T22:30:42.534Z,10.33
2023-12-05T22:33:09.508Z,6.37
2023-12-05T22:35:38.574Z,8.53
2023-12-05T22:38:04.957Z,20.40
2023-12-05T22:40:31.750Z,12.60
2023-12-05T22:42:58.180Z,10.07
2023-12-05T22:45:24.572Z,12.37
2023-12-05T22:47:51.015Z,8.03
2023-12-05T22:50:17.510Z,7.63
2023-12-05T22:52:43.955Z,7.80
2023-12-05T22:55:11.292Z,8.70
2023-12-05T22:57:37.769Z,9.87
2023-12-05T23:00:07.162Z,7.23
2023-12-05T23:02:33.787Z,9.23
2023-12-05T23:05:00.342Z,10.13
2023-12-05T23:07:26.751Z,12.60
2023-12-05T23:09:53.151Z,10.67
2023-12-05T23:12:19.987Z,12.00
2023-12-05T23:14:46.599Z,10.30
2023-12-05T23:17:13.650Z,6.60
2023-12-05T23:19:40.351Z,11.13
2023-12-05T23:22:06.764Z,9.63
2023-12-05T23:24:33.273Z,6.43
2023-12-05T23:26:59.715Z,11.50
2023-12-05T23:29:26.278Z,13.30
2023-12-05T23:31:52.825Z,7.67
2023-12-05T23:34:19.354Z,7.50
2023-12-05T23:36:46.628Z,8.00
2023-12-05T23:39:13.026Z,12.33
2023-12-05T23:41:39.786Z,12.10
2023-12-05T23:44:06.237Z,13.33
2023-12-05T23:46:32.631Z,8.13
2023-12-05T23:48:59.103Z,8.57
2023-12-05T23:51:25.564Z,7.50
2023-12-05T23:53:54.021Z,5.80
2023-12-05T23:56:20.531Z,9.50
2023-12-05T23:58:46.942Z,8.60
